sensor_id;sensor_type;location;lat;lon;timestamp;temperature;humidity
16532;DHT22;66872;63.142;14.482;2023-03-31T00:02:01;11.10;1.00
16532;DHT22;66872;63.142;14.482;2023-03-31T00:04:31;11.10;1.00
16532;DHT22;66872;63.142;14.482;2023-03-31T00:06:57;11.10;1.00
16532;DHT22;66872;63.142;14.482;2023-03-31T00:09:23;11.00;1.00
16532;DHT22;66872;63.142;14.482;2023-03-31T00:11:50;11.00;1.00
16532;DHT22;66872;63.142;14.482;2023-03-31T00:14:17;11.00;1.00
16532;DHT22;66872;63.142;14.482;2023-03-31T00:16:44;11.00;1.00
16532;DHT22;66872;63.142;14.482;2023-03-31T00:19:11;11.00;1.00
16532;DHT22;66872;63.142;14.482;2023-03-31T00:21:46;11.00;1.00
16532;DHT22;66872;63.142;14.482;2023-03-31T00:24:12;10.90;1.00
16532;DHT22;66872;63.142;14.482;2023-03-31T00:26:38;10.90;1.00
16532;DHT22;66872;63.142;14.482;2023-03-31T00:29:05;10.90;1.00
16532;DHT22;66872;63.142;14.482;2023-03-31T00:31:32;10.90;1.00
16532;DHT22;66872;63.142;14.482;2023-03-31T00:33:58;10.90;1.00
16532;DHT22;66872;63.142;14.482;2023-03-31T00:36:24;10.80;1.00
16532;DHT22;66872;63.142;14.482;2023-03-31T00:38:58;10.90;1.00
16532;DHT22;66872;63.142;14.482;2023-03-31T00:41:25;10.80;1.00
16532;DHT22;66872;63.142;14.482;2023-03-31T00:44:05;10.80;1.00
16532;DHT22;66872;63.142;14.482;2023-03-31T00:54:39;10.80;1.00
16532;DHT22;66872;63.142;14.482;2023-03-31T00:57:07;10.80;1.00
16532;DHT22;66872;63.142;14.482;2023-03-31T00:59:45;10.80;1.00
16532;DHT22;66872;63.142;14.482;2023-03-31T01:02:13;10.70;1.00
16532;DHT22;66872;63.142;14.482;2023-03-31T01:04:48;10.70;1.00
16532;DHT22;66872;63.142;14.482;2023-03-31T01:07:17;10.70;1.00
16532;DHT22;66872;63.142;14.482;2023-03-31T01:09:47;10.70;1.00
16532;DHT22;66872;63.142;14.482;2023-03-31T01:12:16;10.70;1.00
16532;DHT22;66872;63.142;14.482;2023-03-31T01:14:43;10.70;1.00
16532;DHT22;66872;63.142;14.482;2023-03-31T01:17:09;10.70;1.00
16532;DHT22;66872;63.142;14.482;2023-03-31T01:22:12;10.70;1.00
16532;DHT22;66872;63.142;14.482;2023-03-31T01:30:32;10.60;1.00
16532;DHT22;66872;63.142;14.482;2023-03-31T01:43:46;10.60;1.00
16532;DHT22;66872;63.142;14.482;2023-03-31T01:46:31;10.60;1.00
16532;DHT22;66872;63.142;14.482;2023-03-31T01:52:07;10.50;1.00
16532;DHT22;66872;63.142;14.482;2023-03-31T01:57:16;10.50;1.00
16532;DHT22;66872;63.142;14.482;2023-03-31T02:00:01;10.50;1.00
16532;DHT22;66872;63.142;14.482;2023-03-31T02:02:36;10.50;1.00
16532;DHT22;66872;63.142;14.482;2023-03-31T02:05:09;10.50;1.00
16532;DHT22;66872;63.142;14.482;2023-03-31T02:07:42;10.50;1.00
16532;DHT22;66872;63.142;14.482;2023-03-31T02:10:10;10.40;1.00
16532;DHT22;66872;63.142;14.482;2023-03-31T02:12:39;10.40;1.00
16532;DHT22;66872;63.142;14.482;2023-03-31T02:15:10;10.40;1.00
16532;DHT22;66872;63.142;14.482;2023-03-31T02:17:39;10.40;1.00
16532;DHT22;66872;63.142;14.482;2023-03-31T02:20:12;10.40;1.00
16532;DHT22;66872;63.142;14.482;2023-03-31T02:22:46;10.40;1.00
16532;DHT22;66872;63.142;14.482;2023-03-31T02:25:16;10.40;1.00
16532;DHT22;66872;63.142;14.482;2023-03-31T02:27:46;10.40;1.00
16532;DHT22;66872;63.142;14.482;2023-03-31T02:30:14;10.40;1.00
16532;DHT22;66872;63.142;14.482;2023-03-31T02:32:41;10.40;1.00
16532;DHT22;66872;63.142;14.482;2023-03-31T02:35:14;10.40;1.00
16532;DHT22;66872;63.142;14.482;2023-03-31T02:37:41;10.40;1.00
16532;DHT22;66872;63.142;14.482;2023-03-31T02:40:15;10.30;1.00
16532;DHT22;66872;63.142;14.482;2023-03-31T02:42:42;10.30;1.00
16532;DHT22;66872;63.142;14.482;2023-03-31T02:48:01;10.30;1.00
16532;DHT22;66872;63.142;14.482;2023-03-31T02:50:34;10.30;1.00
16532;DHT22;66872;63.142;14.482;2023-03-31T02:53:18;10.30;1.00
16532;DHT22;66872;63.142;14.482;2023-03-31T03:01:35;10.20;1.00
16532;DHT22;66872;63.142;14.482;2023-03-31T03:10:26;10.20;1.00
16532;DHT22;66872;63.142;14.482;2023-03-31T03:17:47;10.10;1.00
16532;DHT22;66872;63.142;14.482;2023-03-31T03:20:15;10.10;1.00
16532;DHT22;66872;63.142;14.482;2023-03-31T03:22:43;10.10;1.00
16532;DHT22;66872;63.142;14.482;2023-03-31T03:25:11;10.10;1.00
16532;DHT22;66872;63.142;14.482;2023-03-31T03:27:38;10.10;1.00
16532;DHT22;66872;63.142;14.482;2023-03-31T03:30:06;10.10;1.00
16532;DHT22;66872;63.142;14.482;2023-03-31T03:32:33;10.10;1.00
16532;DHT22;66872;63.142;14.482;2023-03-31T03:35:00;10.00;1.00
16532;DHT22;66872;63.142;14.482;2023-03-31T03:37:26;10.10;1.00
16532;DHT22;66872;63.142;14.482;2023-03-31T03:39:52;10.10;1.00
16532;DHT22;66872;63.142;14.482;2023-03-31T03:42:17;10.10;1.00
16532;DHT22;66872;63.142;14.482;2023-03-31T03:44:43;10.10;1.00
16532;DHT22;66872;63.142;14.482;2023-03-31T03:47:08;10.10;1.00
16532;DHT22;66872;63.142;14.482;2023-03-31T03:49:34;10.10;1.00
16532;DHT22;66872;63.142;14.482;2023-03-31T03:52:00;10.00;1.00
16532;DHT22;66872;63.142;14.482;2023-03-31T03:54:25;10.00;1.00
16532;DHT22;66872;63.142;14.482;2023-03-31T03:56:51;10.00;1.00
16532;DHT22;66872;63.142;14.482;2023-03-31T03:59:17;10.00;1.00
16532;DHT22;66872;63.142;14.482;2023-03-31T04:01:42;10.00;1.00
16532;DHT22;66872;63.142;14.482;2023-03-31T04:04:08;10.00;1.00
16532;DHT22;66872;63.142;14.482;2023-03-31T04:06:34;10.00;1.00
16532;DHT22;66872;63.142;14.482;2023-03-31T04:08:59;10.00;1.00
16532;DHT22;66872;63.142;14.482;2023-03-31T04:11:25;10.00;1.00
16532;DHT22;66872;63.142;14.482;2023-03-31T04:13:52;10.00;1.00
16532;DHT22;66872;63.142;14.482;2023-03-31T04:16:18;10.00;1.00
16532;DHT22;66872;63.142;14.482;2023-03-31T04:18:44;10.00;1.00
16532;DHT22;66872;63.142;14.482;2023-03-31T04:21:11;10.00;1.00
16532;DHT22;66872;63.142;14.482;2023-03-31T04:23:40;10.00;1.00
16532;DHT22;66872;63.142;14.482;2023-03-31T04:26:24;10.00;1.00
16532;DHT22;66872;63.142;14.482;2023-03-31T04:28:56;10.00;1.00
16532;DHT22;66872;63.142;14.482;2023-03-31T04:31:25;10.00;1.00
16532;DHT22;66872;63.142;14.482;2023-03-31T04:33:52;10.00;1.00
16532;DHT22;66872;63.142;14.482;2023-03-31T04:36:18;10.00;1.00
16532;DHT22;66872;63.142;14.482;2023-03-31T04:38:44;10.00;1.00
16532;DHT22;66872;63.142;14.482;2023-03-31T04:41:17;10.00;1.00
16532;DHT22;66872;63.142;14.482;2023-03-31T04:43:42;10.00;1.00
16532;DHT22;66872;63.142;14.482;2023-03-31T04:46:08;10.00;1.00
16532;DHT22;66872;63.142;14.482;2023-03-31T04:48:34;10.00;1.00
16532;DHT22;66872;63.142;14.482;2023-03-31T04:51:00;10.00;1.00
16532;DHT22;66872;63.142;14.482;2023-03-31T04:53:26;10.00;1.00
16532;DHT22;66872;63.142;14.482;2023-03-31T04:55:52;10.00;1.00
16532;DHT22;66872;63.142;14.482;2023-03-31T04:58:18;10.00;1.00
16532;DHT22;66872;63.142;14.482;2023-03-31T05:00:43;10.00;1.00
16532;DHT22;66872;63.142;14.482;2023-03-31T05:03:09;10.00;1.00
16532;DHT22;66872;63.142;14.482;2023-03-31T05:05:36;10.00;1.00
16532;DHT22;66872;63.142;14.482;2023-03-31T05:08:02;10.00;1.00
16532;DHT22;66872;63.142;14.482;2023-03-31T05:10:28;10.00;1.00
16532;DHT22;66872;63.142;14.482;2023-03-31T05:12:54;10.00;1.00
16532;DHT22;66872;63.142;14.482;2023-03-31T05:15:20;10.00;1.00
16532;DHT22;66872;63.142;14.482;2023-03-31T05:17:46;10.00;1.00
16532;DHT22;66872;63.142;14.482;2023-03-31T05:20:12;10.00;1.00
16532;DHT22;66872;63.142;14.482;2023-03-31T05:22:40;10.00;1.00
16532;DHT22;66872;63.142;14.482;2023-03-31T05:25:07;10.00;1.00
16532;DHT22;66872;63.142;14.482;2023-03-31T05:27:34;10.00;1.00
16532;DHT22;66872;63.142;14.482;2023-03-31T05:30:01;10.00;1.00
16532;DHT22;66872;63.142;14.482;2023-03-31T05:32:27;10.00;1.00
16532;DHT22;66872;63.142;14.482;2023-03-31T05:34:53;10.00;1.00
16532;DHT22;66872;63.142;14.482;2023-03-31T05:37:23;10.10;1.00
16532;DHT22;66872;63.142;14.482;2023-03-31T05:39:50;10.10;1.00
16532;DHT22;66872;63.142;14.482;2023-03-31T05:42:16;10.10;1.00
16532;DHT22;66872;63.142;14.482;2023-03-31T05:44:41;10.10;1.00
16532;DHT22;66872;63.142;14.482;2023-03-31T05:47:07;10.10;1.00
16532;DHT22;66872;63.142;14.482;2023-03-31T05:49:33;10.10;1.00
16532;DHT22;66872;63.142;14.482;2023-03-31T05:51:59;10.10;1.00
16532;DHT22;66872;63.142;14.482;2023-03-31T05:54:26;10.10;1.00
16532;DHT22;66872;63.142;14.482;2023-03-31T05:56:52;10.10;1.00
16532;DHT22;66872;63.142;14.482;2023-03-31T05:59:18;10.10;1.00
16532;DHT22;66872;63.142;14.482;2023-03-31T06:01:44;10.20;1.00
16532;DHT22;66872;63.142;14.482;2023-03-31T06:04:09;10.20;1.00
16532;DHT22;66872;63.142;14.482;2023-03-31T06:06:35;10.20;1.00
16532;DHT22;66872;63.142;14.482;2023-03-31T06:09:03;10.20;1.00
16532;DHT22;66872;63.142;14.482;2023-03-31T06:11:29;10.20;1.00
16532;DHT22;66872;63.142;14.482;2023-03-31T06:13:55;10.20;1.00
16532;DHT22;66872;63.142;14.482;2023-03-31T06:16:20;10.20;1.00
16532;DHT22;66872;63.142;14.482;2023-03-31T06:18:47;10.30;1.00
16532;DHT22;66872;63.142;14.482;2023-03-31T06:21:15;10.30;1.00
16532;DHT22;66872;63.142;14.482;2023-03-31T06:23:41;10.30;1.00
16532;DHT22;66872;63.142;14.482;2023-03-31T06:26:11;10.40;1.00
16532;DHT22;66872;63.142;14.482;2023-03-31T06:28:37;10.50;1.00
16532;DHT22;66872;63.142;14.482;2023-03-31T06:31:08;10.50;1.00
16532;DHT22;66872;63.142;14.482;2023-03-31T06:33:34;10.60;1.00
16532;DHT22;66872;63.142;14.482;2023-03-31T06:36:00;10.80;1.00
16532;DHT22;66872;63.142;14.482;2023-03-31T06:38:28;11.00;1.00
16532;DHT22;66872;63.142;14.482;2023-03-31T06:40:54;11.20;1.00
16532;DHT22;66872;63.142;14.482;2023-03-31T06:43:20;11.50;1.00
16532;DHT22;66872;63.142;14.482;2023-03-31T06:45:46;11.80;1.00
16532;DHT22;66872;63.142;14.482;2023-03-31T06:48:12;12.20;1.00
16532;DHT22;66872;63.142;14.482;2023-03-31T06:50:39;12.50;1.00
16532;DHT22;66872;63.142;14.482;2023-03-31T06:53:06;12.80;1.00
16532;DHT22;66872;63.142;14.482;2023-03-31T06:55:32;13.10;1.00
16532;DHT22;66872;63.142;14.482;2023-03-31T06:57:59;13.30;1.00
16532;DHT22;66872;63.142;14.482;2023-03-31T07:00:25;13.60;1.00
16532;DHT22;66872;63.142;14.482;2023-03-31T07:02:52;13.80;1.00
16532;DHT22;66872;63.142;14.482;2023-03-31T07:05:18;14.00;1.00
16532;DHT22;66872;63.142;14.482;2023-03-31T07:07:45;14.10;1.00
16532;DHT22;66872;63.142;14.482;2023-03-31T07:10:10;14.30;1.00
16532;DHT22;66872;63.142;14.482;2023-03-31T07:12:36;14.40;1.00
16532;DHT22;66872;63.142;14.482;2023-03-31T07:15:02;14.50;1.00
16532;DHT22;66872;63.142;14.482;2023-03-31T07:17:28;14.70;1.00
16532;DHT22;66872;63.142;14.482;2023-03-31T07:19:53;14.80;1.00
16532;DHT22;66872;63.142;14.482;2023-03-31T07:22:19;14.90;1.00
16532;DHT22;66872;63.142;14.482;2023-03-31T07:24:45;15.00;1.00
16532;DHT22;66872;63.142;14.482;2023-03-31T07:27:11;15.10;1.00
16532;DHT22;66872;63.142;14.482;2023-03-31T07:29:36;15.20;1.00
16532;DHT22;66872;63.142;14.482;2023-03-31T07:32:02;15.20;1.00
16532;DHT22;66872;63.142;14.482;2023-03-31T07:34:28;15.30;1.00
16532;DHT22;66872;63.142;14.482;2023-03-31T07:36:54;15.30;1.00
16532;DHT22;66872;63.142;14.482;2023-03-31T07:39:21;15.40;1.00
16532;DHT22;66872;63.142;14.482;2023-03-31T07:41:47;15.40;1.00
16532;DHT22;66872;63.142;14.482;2023-03-31T07:44:12;15.50;1.00
16532;DHT22;66872;63.142;14.482;2023-03-31T07:46:38;15.50;1.00
16532;DHT22;66872;63.142;14.482;2023-03-31T07:49:04;15.60;1.00
16532;DHT22;66872;63.142;14.482;2023-03-31T07:51:31;15.60;1.00
16532;DHT22;66872;63.142;14.482;2023-03-31T07:53:57;15.70;1.00
16532;DHT22;66872;63.142;14.482;2023-03-31T07:56:24;15.70;1.00
16532;DHT22;66872;63.142;14.482;2023-03-31T07:58:50;15.80;1.00
16532;DHT22;66872;63.142;14.482;2023-03-31T08:01:19;15.80;1.00
16532;DHT22;66872;63.142;14.482;2023-03-31T08:03:46;15.90;1.00
16532;DHT22;66872;63.142;14.482;2023-03-31T08:06:17;16.00;1.00
16532;DHT22;66872;63.142;14.482;2023-03-31T08:08:44;16.00;1.00
16532;DHT22;66872;63.142;14.482;2023-03-31T08:11:09;16.10;1.00
16532;DHT22;66872;63.142;14.482;2023-03-31T08:13:35;16.10;1.00
16532;DHT22;66872;63.142;14.482;2023-03-31T08:16:01;16.10;1.00
16532;DHT22;66872;63.142;14.482;2023-03-31T08:18:27;16.20;1.00
16532;DHT22;66872;63.142;14.482;2023-03-31T08:20:52;16.30;1.00
16532;DHT22;66872;63.142;14.482;2023-03-31T08:23:18;16.30;1.00
16532;DHT22;66872;63.142;14.482;2023-03-31T08:25:44;16.40;1.00
16532;DHT22;66872;63.142;14.482;2023-03-31T08:28:09;16.40;1.00
16532;DHT22;66872;63.142;14.482;2023-03-31T08:30:39;16.40;1.00
16532;DHT22;66872;63.142;14.482;2023-03-31T08:33:05;16.50;1.00
16532;DHT22;66872;63.142;14.482;2023-03-31T08:35:33;16.50;1.00
16532;DHT22;66872;63.142;14.482;2023-03-31T08:37:59;16.60;1.00
16532;DHT22;66872;63.142;14.482;2023-03-31T08:40:25;16.60;1.00
16532;DHT22;66872;63.142;14.482;2023-03-31T08:43:15;16.60;1.00
16532;DHT22;66872;63.142;14.482;2023-03-31T08:45:45;16.70;1.00
16532;DHT22;66872;63.142;14.482;2023-03-31T08:48:33;16.70;1.00
16532;DHT22;66872;63.142;14.482;2023-03-31T08:56:40;16.80;1.00
16532;DHT22;66872;63.142;14.482;2023-03-31T08:59:18;16.90;1.00
16532;DHT22;66872;63.142;14.482;2023-03-31T09:01:49;16.90;1.00
16532;DHT22;66872;63.142;14.482;2023-03-31T09:07:40;16.90;1.00
16532;DHT22;66872;63.142;14.482;2023-03-31T09:16:00;16.90;1.00
16532;DHT22;66872;63.142;14.482;2023-03-31T09:18:33;16.90;1.00
16532;DHT22;66872;63.142;14.482;2023-03-31T09:32:18;17.00;1.00
16532;DHT22;66872;63.142;14.482;2023-03-31T09:34:45;17.00;1.00
16532;DHT22;66872;63.142;14.482;2023-03-31T09:37:12;17.00;1.00
16532;DHT22;66872;63.142;14.482;2023-03-31T09:39:39;17.00;1.00
16532;DHT22;66872;63.142;14.482;2023-03-31T09:42:05;17.00;1.00
16532;DHT22;66872;63.142;14.482;2023-03-31T09:44:43;17.00;1.00
16532;DHT22;66872;63.142;14.482;2023-03-31T09:47:28;17.00;1.00
16532;DHT22;66872;63.142;14.482;2023-03-31T09:49:56;17.00;1.00
16532;DHT22;66872;63.142;14.482;2023-03-31T09:52:39;17.00;1.00
16532;DHT22;66872;63.142;14.482;2023-03-31T09:55:33;17.00;1.00
16532;DHT22;66872;63.142;14.482;2023-03-31T09:58:05;17.00;1.00
16532;DHT22;66872;63.142;14.482;2023-03-31T10:00:33;17.00;1.00
16532;DHT22;66872;63.142;14.482;2023-03-31T10:03:03;16.90;1.00
16532;DHT22;66872;63.142;14.482;2023-03-31T10:05:47;16.90;1.00
16532;DHT22;66872;63.142;14.482;2023-03-31T10:08:23;16.90;1.00
16532;DHT22;66872;63.142;14.482;2023-03-31T10:10:53;16.90;1.00
16532;DHT22;66872;63.142;14.482;2023-03-31T10:13:24;16.90;1.00
16532;DHT22;66872;63.142;14.482;2023-03-31T10:16:01;16.90;1.00
16532;DHT22;66872;63.142;14.482;2023-03-31T10:18:37;16.90;1.00
16532;DHT22;66872;63.142;14.482;2023-03-31T10:21:05;16.80;1.00
16532;DHT22;66872;63.142;14.482;2023-03-31T10:23:33;16.80;1.00
16532;DHT22;66872;63.142;14.482;2023-03-31T10:26:01;16.80;1.00
16532;DHT22;66872;63.142;14.482;2023-03-31T10:28:32;16.80;1.00
16532;DHT22;66872;63.142;14.482;2023-03-31T10:30:59;16.70;1.00
16532;DHT22;66872;63.142;14.482;2023-03-31T10:33:29;16.70;1.00
16532;DHT22;66872;63.142;14.482;2023-03-31T10:38:45;16.70;1.00
16532;DHT22;66872;63.142;14.482;2023-03-31T10:41:11;16.60;1.00
16532;DHT22;66872;63.142;14.482;2023-03-31T10:43:47;16.60;1.00
16532;DHT22;66872;63.142;14.482;2023-03-31T10:46:13;16.60;1.00
16532;DHT22;66872;63.142;14.482;2023-03-31T10:48:40;16.60;1.00
16532;DHT22;66872;63.142;14.482;2023-03-31T10:51:20;16.50;1.00
16532;DHT22;66872;63.142;14.482;2023-03-31T10:53:46;16.50;1.00
16532;DHT22;66872;63.142;14.482;2023-03-31T11:08:01;16.40;1.00
16532;DHT22;66872;63.142;14.482;2023-03-31T11:23:47;16.30;1.00
16532;DHT22;66872;63.142;14.482;2023-03-31T11:29:34;16.30;1.00
16532;DHT22;66872;63.142;14.482;2023-03-31T11:32:12;16.30;1.00
16532;DHT22;66872;63.142;14.482;2023-03-31T11:44:57;16.30;1.00
16532;DHT22;66872;63.142;14.482;2023-03-31T11:47:30;16.30;1.00
16532;DHT22;66872;63.142;14.482;2023-03-31T11:50:05;16.30;1.00
16532;DHT22;66872;63.142;14.482;2023-03-31T11:52:38;16.30;1.00
16532;DHT22;66872;63.142;14.482;2023-03-31T11:55:18;16.30;1.00
16532;DHT22;66872;63.142;14.482;2023-03-31T12:00:16;16.30;1.00
16532;DHT22;66872;63.142;14.482;2023-03-31T12:02:50;16.30;1.00
16532;DHT22;66872;63.142;14.482;2023-03-31T12:05:18;16.30;1.00
16532;DHT22;66872;63.142;14.482;2023-03-31T12:08:17;16.30;1.00
16532;DHT22;66872;63.142;14.482;2023-03-31T12:11:08;16.30;1.00
16532;DHT22;66872;63.142;14.482;2023-03-31T12:16:45;16.30;1.00
16532;DHT22;66872;63.142;14.482;2023-03-31T12:19:32;16.30;1.00
16532;DHT22;66872;63.142;14.482;2023-03-31T12:24:43;16.30;1.00
16532;DHT22;66872;63.142;14.482;2023-03-31T12:33:13;16.30;1.00
16532;DHT22;66872;63.142;14.482;2023-03-31T12:36:14;16.30;1.00
16532;DHT22;66872;63.142;14.482;2023-03-31T12:44:55;16.30;1.00
16532;DHT22;66872;63.142;14.482;2023-03-31T12:55:42;16.20;1.00
16532;DHT22;66872;63.142;14.482;2023-03-31T13:06:49;16.20;1.00
16532;DHT22;66872;63.142;14.482;2023-03-31T13:11:45;16.20;1.00
16532;DHT22;66872;63.142;14.482;2023-03-31T13:14:20;16.20;1.00
16532;DHT22;66872;63.142;14.482;2023-03-31T13:16:48;16.20;1.00
16532;DHT22;66872;63.142;14.482;2023-03-31T13:19:33;16.20;1.00
16532;DHT22;66872;63.142;14.482;2023-03-31T13:22:00;16.20;1.00
16532;DHT22;66872;63.142;14.482;2023-03-31T13:24:28;16.20;1.00
16532;DHT22;66872;63.142;14.482;2023-03-31T13:26:56;16.20;1.00
16532;DHT22;66872;63.142;14.482;2023-03-31T13:29:26;16.20;1.00
16532;DHT22;66872;63.142;14.482;2023-03-31T13:34:44;16.10;1.00
16532;DHT22;66872;63.142;14.482;2023-03-31T13:37:39;16.10;1.00
16532;DHT22;66872;63.142;14.482;2023-03-31T14:08:12;16.10;1.00
16532;DHT22;66872;63.142;14.482;2023-03-31T14:10:41;16.10;1.00
16532;DHT22;66872;63.142;14.482;2023-03-31T14:13:23;16.10;1.00
16532;DHT22;66872;63.142;14.482;2023-03-31T14:15:51;16.10;1.00
16532;DHT22;66872;63.142;14.482;2023-03-31T14:18:32;16.10;1.00
16532;DHT22;66872;63.142;14.482;2023-03-31T14:24:00;16.00;1.00
16532;DHT22;66872;63.142;14.482;2023-03-31T14:29:46;16.00;1.00
16532;DHT22;66872;63.142;14.482;2023-03-31T14:34:53;16.00;1.00
16532;DHT22;66872;63.142;14.482;2023-03-31T14:37:22;16.00;1.00
16532;DHT22;66872;63.142;14.482;2023-03-31T14:39:50;16.00;1.00
16532;DHT22;66872;63.142;14.482;2023-03-31T14:42:22;16.00;1.00
16532;DHT22;66872;63.142;14.482;2023-03-31T14:45:00;16.00;1.00
16532;DHT22;66872;63.142;14.482;2023-03-31T14:47:27;16.00;1.00
16532;DHT22;66872;63.142;14.482;2023-03-31T14:52:31;16.00;1.00
16532;DHT22;66872;63.142;14.482;2023-03-31T14:54:58;16.00;1.00
16532;DHT22;66872;63.142;14.482;2023-03-31T14:57:33;16.00;1.00
16532;DHT22;66872;63.142;14.482;2023-03-31T15:00:04;16.00;1.00
16532;DHT22;66872;63.142;14.482;2023-03-31T15:02:35;16.10;1.00
16532;DHT22;66872;63.142;14.482;2023-03-31T15:05:09;16.10;1.00
16532;DHT22;66872;63.142;14.482;2023-03-31T15:07:40;16.10;1.00
16532;DHT22;66872;63.142;14.482;2023-03-31T15:10:06;16.10;1.00
16532;DHT22;66872;63.142;14.482;2023-03-31T15:12:33;16.10;1.00
16532;DHT22;66872;63.142;14.482;2023-03-31T15:15:03;16.10;1.00
16532;DHT22;66872;63.142;14.482;2023-03-31T15:17:36;16.10;1.00
16532;DHT22;66872;63.142;14.482;2023-03-31T15:20:28;16.10;1.00
16532;DHT22;66872;63.142;14.482;2023-03-31T15:22:55;16.20;1.00
16532;DHT22;66872;63.142;14.482;2023-03-31T15:25:25;16.20;1.00
16532;DHT22;66872;63.142;14.482;2023-03-31T15:28:08;16.20;1.00
16532;DHT22;66872;63.142;14.482;2023-03-31T15:30:36;16.20;1.00
16532;DHT22;66872;63.142;14.482;2023-03-31T15:33:05;16.20;1.00
16532;DHT22;66872;63.142;14.482;2023-03-31T15:35:33;16.20;1.00
16532;DHT22;66872;63.142;14.482;2023-03-31T15:38:02;16.20;1.00
16532;DHT22;66872;63.142;14.482;2023-03-31T15:40:39;16.20;1.00
16532;DHT22;66872;63.142;14.482;2023-03-31T15:43:15;16.20;1.00
16532;DHT22;66872;63.142;14.482;2023-03-31T15:45:51;16.20;1.00
16532;DHT22;66872;63.142;14.482;2023-03-31T15:48:21;16.20;1.00
16532;DHT22;66872;63.142;14.482;2023-03-31T15:50:48;16.20;1.00
16532;DHT22;66872;63.142;14.482;2023-03-31T15:53:27;16.20;1.00
16532;DHT22;66872;63.142;14.482;2023-03-31T15:55:55;16.20;1.00
16532;DHT22;66872;63.142;14.482;2023-03-31T15:58:45;16.30;1.00
16532;DHT22;66872;63.142;14.482;2023-03-31T16:01:10;16.30;1.00
16532;DHT22;66872;63.142;14.482;2023-03-31T16:03:40;16.20;1.00
16532;DHT22;66872;63.142;14.482;2023-03-31T16:06:08;16.20;1.00
16532;DHT22;66872;63.142;14.482;2023-03-31T16:08:42;16.20;1.00
16532;DHT22;66872;63.142;14.482;2023-03-31T16:11:13;16.20;1.00
16532;DHT22;66872;63.142;14.482;2023-03-31T16:13:43;16.30;1.00
16532;DHT22;66872;63.142;14.482;2023-03-31T16:16:13;16.20;1.00
16532;DHT22;66872;63.142;14.482;2023-03-31T16:18:46;16.20;1.00
16532;DHT22;66872;63.142;14.482;2023-03-31T16:21:23;16.20;1.00
16532;DHT22;66872;63.142;14.482;2023-03-31T16:23:53;16.20;1.00
16532;DHT22;66872;63.142;14.482;2023-03-31T16:26:24;16.20;1.00
16532;DHT22;66872;63.142;14.482;2023-03-31T16:28:53;16.20;1.00
16532;DHT22;66872;63.142;14.482;2023-03-31T16:33:55;16.20;1.00
16532;DHT22;66872;63.142;14.482;2023-03-31T16:36:21;16.20;1.00
16532;DHT22;66872;63.142;14.482;2023-03-31T16:38:50;16.20;1.00
16532;DHT22;66872;63.142;14.482;2023-03-31T16:41:17;16.20;1.00
16532;DHT22;66872;63.142;14.482;2023-03-31T16:43:44;16.20;1.00
16532;DHT22;66872;63.142;14.482;2023-03-31T16:46:10;16.20;1.00
16532;DHT22;66872;63.142;14.482;2023-03-31T16:48:36;16.10;1.00
16532;DHT22;66872;63.142;14.482;2023-03-31T16:51:02;16.10;1.00
16532;DHT22;66872;63.142;14.482;2023-03-31T16:53:35;16.10;1.00
16532;DHT22;66872;63.142;14.482;2023-03-31T16:56:02;16.10;1.00
16532;DHT22;66872;63.142;14.482;2023-03-31T16:58:28;16.00;1.00
16532;DHT22;66872;63.142;14.482;2023-03-31T17:00:55;16.00;1.00
16532;DHT22;66872;63.142;14.482;2023-03-31T17:03:21;16.00;1.00
16532;DHT22;66872;63.142;14.482;2023-03-31T17:05:50;16.00;1.00
16532;DHT22;66872;63.142;14.482;2023-03-31T17:08:18;16.00;1.00
16532;DHT22;66872;63.142;14.482;2023-03-31T17:10:55;15.90;1.00
16532;DHT22;66872;63.142;14.482;2023-03-31T17:13:22;15.90;1.00
16532;DHT22;66872;63.142;14.482;2023-03-31T17:15:48;15.80;1.00
16532;DHT22;66872;63.142;14.482;2023-03-31T17:18:14;15.80;1.00
16532;DHT22;66872;63.142;14.482;2023-03-31T17:20:40;15.80;1.00
16532;DHT22;66872;63.142;14.482;2023-03-31T17:23:06;15.80;1.00
16532;DHT22;66872;63.142;14.482;2023-03-31T17:25:32;15.70;1.00
16532;DHT22;66872;63.142;14.482;2023-03-31T17:27:59;15.70;1.00
16532;DHT22;66872;63.142;14.482;2023-03-31T17:30:26;15.70;1.00
16532;DHT22;66872;63.142;14.482;2023-03-31T17:32:52;15.60;1.00
16532;DHT22;66872;63.142;14.482;2023-03-31T17:35:19;15.60;1.00
16532;DHT22;66872;63.142;14.482;2023-03-31T17:37:48;15.50;1.00
16532;DHT22;66872;63.142;14.482;2023-03-31T17:40:22;15.50;1.00
16532;DHT22;66872;63.142;14.482;2023-03-31T17:42:48;15.50;1.00
16532;DHT22;66872;63.142;14.482;2023-03-31T17:45:14;15.50;1.00
16532;DHT22;66872;63.142;14.482;2023-03-31T17:47:40;15.40;1.00
16532;DHT22;66872;63.142;14.482;2023-03-31T17:50:06;15.40;1.00
16532;DHT22;66872;63.142;14.482;2023-03-31T17:52:34;15.40;1.00
16532;DHT22;66872;63.142;14.482;2023-03-31T17:55:00;15.30;1.00
16532;DHT22;66872;63.142;14.482;2023-03-31T17:57:26;15.30;1.00
16532;DHT22;66872;63.142;14.482;2023-03-31T17:59:52;15.20;1.00
16532;DHT22;66872;63.142;14.482;2023-03-31T18:02:18;15.20;1.00
16532;DHT22;66872;63.142;14.482;2023-03-31T18:04:44;15.20;1.00
16532;DHT22;66872;63.142;14.482;2023-03-31T18:07:09;15.10;1.00
16532;DHT22;66872;63.142;14.482;2023-03-31T18:09:36;15.10;1.00
16532;DHT22;66872;63.142;14.482;2023-03-31T18:12:02;15.10;1.00
16532;DHT22;66872;63.142;14.482;2023-03-31T18:14:28;15.00;1.00
16532;DHT22;66872;63.142;14.482;2023-03-31T18:16:55;15.00;1.00
16532;DHT22;66872;63.142;14.482;2023-03-31T18:19:22;14.90;1.00
16532;DHT22;66872;63.142;14.482;2023-03-31T18:21:48;14.90;1.00
16532;DHT22;66872;63.142;14.482;2023-03-31T18:24:15;14.90;1.00
16532;DHT22;66872;63.142;14.482;2023-03-31T18:26:41;14.80;1.00
16532;DHT22;66872;63.142;14.482;2023-03-31T18:29:07;14.80;1.00
16532;DHT22;66872;63.142;14.482;2023-03-31T18:31:32;14.80;1.00
16532;DHT22;66872;63.142;14.482;2023-03-31T18:33:58;14.70;1.00
16532;DHT22;66872;63.142;14.482;2023-03-31T18:36:24;14.70;1.00
16532;DHT22;66872;63.142;14.482;2023-03-31T18:38:51;14.70;1.00
16532;DHT22;66872;63.142;14.482;2023-03-31T18:41:18;14.70;1.00
16532;DHT22;66872;63.142;14.482;2023-03-31T18:43:44;14.60;1.00
16532;DHT22;66872;63.142;14.482;2023-03-31T18:46:12;14.60;1.00
16532;DHT22;66872;63.142;14.482;2023-03-31T18:48:38;14.50;1.00
16532;DHT22;66872;63.142;14.482;2023-03-31T18:51:06;14.50;1.00
16532;DHT22;66872;63.142;14.482;2023-03-31T18:53:33;14.50;1.00
16532;DHT22;66872;63.142;14.482;2023-03-31T18:55:59;14.50;1.00
16532;DHT22;66872;63.142;14.482;2023-03-31T18:58:26;14.40;1.00
16532;DHT22;66872;63.142;14.482;2023-03-31T19:00:54;14.40;1.00
16532;DHT22;66872;63.142;14.482;2023-03-31T19:03:20;14.40;1.00
16532;DHT22;66872;63.142;14.482;2023-03-31T19:05:46;14.30;1.00
16532;DHT22;66872;63.142;14.482;2023-03-31T19:08:12;14.30;1.00